ADDS METAR Data INFO
IDs: Format: Raw Decoded Include TAF

Data at: 1805 UTC 12 Dec 2017

METAR for:KSJC (San Jose Intl Arpt, CA, US)
Text:KSJC 121753Z 00000KT 10SM FEW012 FEW035 FEW080 11/02 A3034 RMK AO2 SLP272 FU FEW012 FU FEW035 T01110017 10117 20028 51004 $
Temperature: 11.1°C ( 52°F)
Dewpoint: 1.7°C ( 35°F) [RH = 52%]
Pressure (altimeter):30.34 inches Hg (1027.5 mb) [Sea level pressure: 1027.2 mb]
Winds:calm
Visibility:10 or more sm (16+ km)
Ceiling:at least 12,000 feet AGL
Clouds: few clouds at 1200 feet AGL, few clouds at 3500 feet AGL, few clouds at 8000 feet AGL
QC Flag:SOME DATA ABOVE MAY BE INACCURATE!!!"$" is an indication the sensor requires maintenance.
Text:KSJC 121653Z 00000KT 10SM FEW004 FEW035 SCT080 08/01 A3033 RMK AO2 SLP271 FU FEW004 FU FEW035 T00830011 $
Temperature: 8.3°C ( 47°F)
Dewpoint: 1.1°C ( 34°F) [RH = 60%]
Pressure (altimeter):30.33 inches Hg (1027.2 mb) [Sea level pressure: 1027.1 mb]
Winds:calm
Visibility:10 or more sm (16+ km)
Ceiling:at least 12,000 feet AGL
Clouds: few clouds at 400 feet AGL, few clouds at 3500 feet AGL, scattered clouds at 8000 feet AGL
QC Flag:SOME DATA ABOVE MAY BE INACCURATE!!!"$" is an indication the sensor requires maintenance.
Text:KSJC 121553Z 13004KT 10SM FEW003 FEW050 SCT080 05/01 A3033 RMK AO2 SLP269 FU FEW003 FU FEW050 T00500006 $
Temperature: 5.0°C ( 41°F)
Dewpoint: 0.6°C ( 33°F) [RH = 73%]
Pressure (altimeter):30.33 inches Hg (1027.2 mb) [Sea level pressure: 1026.9 mb]
Winds:from the SE (130 degrees) at 5 MPH (4 knots; 2.1 m/s)
Visibility:10 or more sm (16+ km)
Ceiling:at least 12,000 feet AGL
Clouds: few clouds at 300 feet AGL, few clouds at 5000 feet AGL, scattered clouds at 8000 feet AGL
QC Flag:SOME DATA ABOVE MAY BE INACCURATE!!!"$" is an indication the sensor requires maintenance.
Text:KSJC 121453Z 00000KT 10SM FEW050 SCT080 04/00 A3032 RMK AO2 SLP268 FU FEW050 T00390000 53005 $
Temperature: 3.9°C ( 39°F)
Dewpoint: 0.0°C ( 32°F) [RH = 76%]
Pressure (altimeter):30.32 inches Hg (1026.8 mb) [Sea level pressure: 1026.8 mb]
Winds:calm
Visibility:10 or more sm (16+ km)
Ceiling:at least 12,000 feet AGL
Clouds: few clouds at 5000 feet AGL, scattered clouds at 8000 feet AGL
QC Flag:SOME DATA ABOVE MAY BE INACCURATE!!!"$" is an indication the sensor requires maintenance.
Text:KSJC 121353Z 00000KT 10SM CLR 04/01 A3031 RMK AO2 SLP264 T00440006 $
Temperature: 4.4°C ( 40°F)
Dewpoint: 0.6°C ( 33°F) [RH = 76%]
Pressure (altimeter):30.31 inches Hg (1026.5 mb) [Sea level pressure: 1026.4 mb]
Winds:calm
Visibility:10 or more sm (16+ km)
Ceiling:at least 12,000 feet AGL
Clouds:sky clear below 12,000 feet AGL
QC Flag:SOME DATA ABOVE MAY BE INACCURATE!!!"$" is an indication the sensor requires maintenance.
Text:KSJC 121253Z AUTO 14003KT 10SM CLR 05/01 A3031 RMK AO2 SLP263 T00500006 $
Temperature: 5.0°C ( 41°F)
Dewpoint: 0.6°C ( 33°F) [RH = 73%]
Pressure (altimeter):30.31 inches Hg (1026.5 mb) [Sea level pressure: 1026.3 mb]
Winds:from the SE (140 degrees) at 3 MPH (3 knots; 1.5 m/s)
Visibility:10 or more sm (16+ km)
Ceiling:at least 12,000 feet AGL
Clouds:sky clear below 12,000 feet AGL
QC Flag:automated observation with no human augmentation; SOME DATA ABOVE MAY BE INACCURATE!!!"$" is an indication the sensor requires maintenance.
Text:KSJC 121153Z AUTO 00000KT 10SM CLR 05/01 A3031 RMK AO2 SLP263 T00500011 10117 20050 58007 $
Temperature: 5.0°C ( 41°F)
Dewpoint: 1.1°C ( 34°F) [RH = 76%]
Pressure (altimeter):30.31 inches Hg (1026.5 mb) [Sea level pressure: 1026.3 mb]
Winds:calm
Visibility:10 or more sm (16+ km)
Ceiling:at least 12,000 feet AGL
Clouds:sky clear below 12,000 feet AGL
QC Flag:automated observation with no human augmentation; SOME DATA ABOVE MAY BE INACCURATE!!!"$" is an indication the sensor requires maintenance.
Text:KSJC 121053Z AUTO 00000KT 10SM CLR 06/01 A3032 RMK AO2 SLP266 T00560011 $
Temperature: 5.6°C ( 42°F)
Dewpoint: 1.1°C ( 34°F) [RH = 73%]
Pressure (altimeter):30.32 inches Hg (1026.8 mb) [Sea level pressure: 1026.6 mb]
Winds:calm
Visibility:10 or more sm (16+ km)
Ceiling:at least 12,000 feet AGL
Clouds:sky clear below 12,000 feet AGL
QC Flag:automated observation with no human augmentation; SOME DATA ABOVE MAY BE INACCURATE!!!"$" is an indication the sensor requires maintenance.
Text:KSJC 120953Z AUTO 00000KT 10SM CLR 06/02 A3033 RMK AO2 SLP268 T00610017 $
Temperature: 6.1°C ( 43°F)
Dewpoint: 1.7°C ( 35°F) [RH = 73%]
Pressure (altimeter):30.33 inches Hg (1027.2 mb) [Sea level pressure: 1026.8 mb]
Winds:calm
Visibility:10 or more sm (16+ km)
Ceiling:at least 12,000 feet AGL
Clouds:sky clear below 12,000 feet AGL
QC Flag:automated observation with no human augmentation; SOME DATA ABOVE MAY BE INACCURATE!!!"$" is an indication the sensor requires maintenance.
Text:KSJC 120853Z AUTO 11003KT 10SM CLR 08/02 A3033 RMK AO2 SLP270 T00780022 50005 $
Temperature: 7.8°C ( 46°F)
Dewpoint: 2.2°C ( 36°F) [RH = 68%]
Pressure (altimeter):30.33 inches Hg (1027.2 mb) [Sea level pressure: 1027.0 mb]
Winds:from the ESE (110 degrees) at 3 MPH (3 knots; 1.5 m/s)
Visibility:10 or more sm (16+ km)
Ceiling:at least 12,000 feet AGL
Clouds:sky clear below 12,000 feet AGL
QC Flag:automated observation with no human augmentation; SOME DATA ABOVE MAY BE INACCURATE!!!"$" is an indication the sensor requires maintenance.
Text:KSJC 120753Z 10003KT 10SM FEW002 SCT110 08/03 A3034 RMK AO2 SLP272 FU FEW002 LAST T00830028 402060039 $
Temperature: 8.3°C ( 47°F)
Dewpoint: 2.8°C ( 37°F) [RH = 68%]
Pressure (altimeter):30.34 inches Hg (1027.5 mb) [Sea level pressure: 1027.2 mb]
Winds:from the E (100 degrees) at 3 MPH (3 knots; 1.5 m/s)
Visibility:10 or more sm (16+ km)
Ceiling:at least 12,000 feet AGL
Clouds: few clouds at 200 feet AGL, scattered clouds at 11000 feet AGL
QC Flag:SOME DATA ABOVE MAY BE INACCURATE!!!"$" is an indication the sensor requires maintenance.
Text:KSJC 120653Z 14003KT 10SM FEW003 SCT120 11/03 A3033 RMK AO2 SLP270 FU FEW003 T01060033 $
Temperature: 10.6°C ( 51°F)
Dewpoint: 3.3°C ( 38°F) [RH = 61%]
Pressure (altimeter):30.33 inches Hg (1027.2 mb) [Sea level pressure: 1027.0 mb]
Winds:from the SE (140 degrees) at 3 MPH (3 knots; 1.5 m/s)
Visibility:10 or more sm (16+ km)
Ceiling:at least 12,000 feet AGL
Clouds: few clouds at 300 feet AGL, scattered clouds at 12000 feet AGL
QC Flag:SOME DATA ABOVE MAY BE INACCURATE!!!"$" is an indication the sensor requires maintenance.